AirNav   ATP
 
 427 users online  

64MN Svard Heliport
Plymouth, Minnesota, USA

GOING TO PLYMOUTH?


FAA INFORMATION EFFECTIVE 20 JULY 2017

Location

FAA Identifier: 64MN
Lat/Long: 45-02-34.2000N / 093-25-57.8000W
45-02.570000N / 093-25.963333W
45.0428333 / -93.4327222
(estimated)
Elevation: 902 ft. / 275 m
From city: 4 miles NE of PLYMOUTH, MN
Time zone: UTC -5 (UTC -6 during Standard Time)
Zip code: 55442

Heliport Operations

Heliport use: Private use. Permission required prior to landing
Activation date: 02/2004
Control tower: no
ARTCC: MINNEAPOLIS CENTER
FSS: PRINCETON FLIGHT SERVICE STATION
Attendance: UNATNDD
Wind indicator: yes
Segmented circle: no

Heliport Communications

WX ASOS at MIC (4 nm E): PHONE 763-531-2343
WX AWOS-3 at ANE (11 nm NE): PHONE 763-780-9025
WX ASOS at FCM (13 nm S): PHONE 952-941-4156
WX ASOS at MSP (13 nm SE): PHONE 612-713-4174
WX ASOS at STP (17 nm E): PHONE 651-298-1410
WX AWOS-3 at CFE (19 nm W): 120.45 (763-684-0762)

Nearby radio navigation aids

VOR radial/distance  VOR name  Freq  Var
GEPr196/6.7GOPHER VORTAC117.3006E
MSPr315/12.1MINNEAPOLIS VOR/DME115.3002E
FCMr001/13.1FLYING CLOUD VOR/DME117.7001E
FGTr331/26.9FARMINGTON VORTAC115.7006E

 
NDB name  Hdg/Dist  Freq  Var  ID
HOPEY293/23.240003EPPI .--. .--. ..
CAMBRIDGE192/31.735001ECBG -.-. -... --.
PRINCETON164/32.236803EPNM .--. -. --
GLENCOE056/32.540703EGYL --. -.-- .-..

Heliport Services

Runway Information

Helipad H1

Dimensions: 11 x 11 ft. / 3 x 3 m
Surface: wood
Runway edge lights: FLD
Traffic pattern: leftleft

Heliport Ownership and Management from official FAA records

Ownership: Privately-owned
Owner: TRYGVE SVARD
12075 48TH AVE NORTH
PLYMOUTH, MN 55442
Phone 763-383-1118
Manager: TRYGVE SVARD
12075 48TH AVE NORTH
PLYMOUTH, MN 55442
Phone 763-383-1118

Additional Remarks

A52-H1 40FT BLDG 60 FT N, 35 FT TREE 55 FT W, AND 35 FT TREE 55 FT E.

Instrument Procedures

There are no published instrument procedures at 64MN.

Some nearby airports with instrument procedures:

KMIC - Crystal Airport (4 nm E)
KANE - Anoka County-Blaine Airport (Janes Field) (11 nm NE)
KFCM - Flying Cloud Airport (13 nm S)
KMSP - Minneapolis-St Paul International/Wold-Chamberlain Airport (13 nm SE)
KSTP - St. Paul Downtown Airport / Holman Field (17 nm E)
KCFE - Buffalo Municipal Airport (19 nm W)
 
Loc | Ops | Rwys | IFR | FBO | Links
Com | Nav | Svcs | Stats | Notes


 
Area around 64MN (Svard Heliport)
 
Road maps at: MapQuest Bing Google
 
Aerial photo
No photo
 
Sectional chart

 
Airport distance calculator
Flying to Svard Heliport? Find the distance to fly.

From to 64MN

Sunrise and sunset
Times for 28-Jul-2017
 Local
(UTC-5)
 Zulu
(UTC)
Morning civil twilight05:2110:21
Sunrise05:5510:55
Sunset20:4501:45
Evening civil twilight21:1902:19

Current date and time
Zulu (UTC)  28-Jul-2017 10:24:35
Local (UTC-5)  28-Jul-2017 05:24:35
 
METAR
KMIC 
4nm E 
280953Z AUTO 00000KT 10SM CLR 16/14 A3006 RMK AO2 SLP176 T01610139
KANE 
11nm NE 
280954Z AUTO 00000KT 10SM CLR 17/16 A3008 RMK AO2
KFCM 
13nm S 
280953Z AUTO 35003KT 10SM CLR 19/17 A3006 RMK AO2 SLP175 T01890167
KMSP 
13nm SE 
280953Z 02003KT 10SM FEW300 19/16 A3007 RMK AO2 SLP178 T01890156
KSGS 
17nm SE 
280953Z AUTO 00000KT 10SM CLR 19/15 A3007 RMK AO2 T01910147
KSTP 
18nm E 
280953Z AUTO 36004KT 10SM CLR 18/16 A3007 RMK AO2 SLP177 T01830156
KCFE 
19nm W 
280954Z AUTO 00000KT 10SM CLR 17/15 A3009 RMK AO2 T01670149
TAF
KMSP 
13nm SE 
280815Z 2807/2912 03002KT P6SM SCT300 FM281600 09008KT P6SM SCT060 SCT110
NOTAMs
Click for the latest NOTAMs
NOTAMs are issued by the DoD/FAA and will open in a separate window not controlled by AirNav.

 

 
 

Would you like to see your business listed on this page?

 If your business provides an interesting product or service to pilots, flight crews, aircraft, or users of the Svard Heliport, you should consider listing it here.  To start the listing process, click on the button below
 
Add a business
 

Other Pages about Svard Heliport

Update a link
 
Copyright © AirNav, LLC. All rights reserved. Privacy Policy  Contact